createdAt,value
2022-10-01T00:00:33.589Z,100.00
2022-10-01T00:03:00.516Z,100.00
2022-10-01T00:05:28.792Z,100.00
2022-10-01T00:07:55.581Z,100.00
2022-10-01T00:10:24.054Z,100.00
2022-10-01T00:12:50.880Z,100.00
2022-10-01T00:15:21.802Z,100.00
2022-10-01T00:17:48.871Z,100.00
2022-10-01T00:20:15.763Z,100.00
2022-10-01T00:22:43.961Z,100.00
2022-10-01T00:25:11.357Z,100.00
2022-10-01T00:27:38.159Z,100.00
2022-10-01T00:30:05.980Z,100.00
2022-10-01T00:32:33.536Z,100.00
2022-10-01T00:35:00.609Z,100.00
2022-10-01T00:37:27.490Z,100.00
2022-10-01T00:39:55.845Z,100.00
2022-10-01T00:42:25.005Z,100.00
2022-10-01T00:44:53.373Z,100.00
2022-10-01T00:47:27.345Z,100.00
2022-10-01T00:50:00.316Z,100.00
2022-10-01T00:52:31.866Z,100.00
2022-10-01T00:55:05.201Z,100.00
2022-10-01T00:57:33.542Z,100.00
2022-10-01T01:00:04.885Z,100.00
2022-10-01T01:02:31.777Z,100.00
2022-10-01T01:04:59.658Z,100.00
2022-10-01T01:07:27.211Z,100.00
2022-10-01T01:09:55.248Z,100.00
2022-10-01T01:12:47.574Z,100.00
2022-10-01T01:15:21.298Z,100.00
2022-10-01T01:17:54.746Z,100.00
2022-10-01T01:20:54.366Z,100.00
2022-10-01T01:23:42.337Z,100.00
2022-10-01T01:26:17.318Z,100.00
2022-10-01T01:28:49.067Z,100.00
2022-10-01T01:31:23.098Z,100.00
2022-10-01T01:33:53.855Z,100.00
2022-10-01T01:36:26.426Z,100.00
2022-10-01T01:38:57.556Z,100.00
2022-10-01T01:41:27.397Z,100.00
2022-10-01T01:44:00.681Z,100.00
2022-10-01T01:46:33.274Z,100.00
2022-10-01T01:49:02.446Z,100.00
2022-10-01T01:51:35.899Z,100.00
2022-10-01T01:54:03.339Z,100.00
2022-10-01T01:56:31.240Z,100.00
2022-10-01T01:59:01.172Z,100.00
2022-10-01T02:01:33.265Z,100.00
2022-10-01T02:04:00.865Z,100.00
2022-10-01T02:06:34.707Z,100.00
2022-10-01T02:09:09.749Z,100.00
2022-10-01T02:11:46.007Z,100.00
2022-10-01T02:14:25.374Z,100.00
2022-10-01T02:17:01.572Z,100.00
2022-10-01T02:19:34.210Z,100.00
2022-10-01T02:22:05.843Z,100.00
2022-10-01T02:24:38.524Z,100.00
2022-10-01T02:27:11.523Z,100.00
2022-10-01T02:29:40.853Z,100.00
2022-10-01T02:32:09.838Z,100.00
2022-10-01T02:34:39.152Z,100.00
2022-10-01T02:37:08.893Z,100.00
2022-10-01T02:39:36.509Z,100.00
2022-10-01T02:42:05.314Z,100.00
2022-10-01T02:44:38.241Z,100.00
2022-10-01T02:47:12.691Z,100.00
2022-10-01T02:49:42.852Z,100.00
2022-10-01T02:52:17.485Z,100.00
2022-10-01T02:54:51.258Z,100.00
2022-10-01T02:57:27.017Z,100.00
2022-10-01T02:59:57.817Z,100.00
2022-10-01T03:02:27.975Z,100.00
2022-10-01T03:04:56.952Z,100.00
2022-10-01T03:07:23.757Z,100.00
2022-10-01T03:09:51.156Z,100.00
2022-10-01T03:12:18.553Z,100.00
2022-10-01T03:14:45.883Z,100.00
2022-10-01T03:17:13.786Z,100.00
2022-10-01T03:19:42.613Z,100.00
2022-10-01T03:22:12.866Z,100.00
2022-10-01T03:24:39.756Z,100.00
2022-10-01T03:27:06.959Z,100.00
2022-10-01T03:29:33.743Z,100.00
2022-10-01T03:32:00.932Z,100.00
2022-10-01T03:34:27.819Z,100.00
2022-10-01T03:36:56.228Z,100.00
2022-10-01T03:39:23.282Z,100.00
2022-10-01T03:41:50.115Z,100.00
2022-10-01T03:44:17.327Z,100.00
2022-10-01T03:46:44.471Z,100.00
2022-10-01T03:49:11.368Z,100.00
2022-10-01T03:51:38.659Z,100.00
2022-10-01T03:54:07.965Z,100.00
2022-10-01T03:56:36.109Z,100.00
2022-10-01T03:59:03.079Z,100.00
2022-10-01T04:01:31.138Z,100.00
2022-10-01T04:03:58.340Z,100.00
2022-10-01T04:06:25.379Z,100.00
2022-10-01T04:08:52.239Z,100.00
2022-10-01T04:11:20.618Z,100.00
2022-10-01T04:13:47.559Z,100.00
2022-10-01T04:16:16.089Z,100.00
2022-10-01T04:18:43.265Z,100.00
2022-10-01T04:21:10.069Z,100.00
2022-10-01T04:23:36.844Z,100.00
2022-10-01T04:26:03.665Z,100.00
2022-10-01T04:28:32.098Z,100.00
2022-10-01T04:31:17.488Z,100.00
2022-10-01T04:33:44.919Z,100.00
2022-10-01T04:36:11.936Z,100.00
2022-10-01T04:38:38.842Z,100.00
2022-10-01T04:41:05.993Z,100.00
2022-10-01T04:43:34.206Z,100.00
2022-10-01T04:46:01.041Z,100.00
2022-10-01T04:48:27.905Z,100.00
2022-10-01T04:50:54.698Z,100.00
2022-10-01T04:53:21.523Z,100.00
2022-10-01T04:55:48.342Z,100.00
2022-10-01T04:58:29.741Z,100.00
2022-10-01T05:01:01.804Z,100.00
2022-10-01T05:03:29.505Z,100.00
2022-10-01T05:05:56.493Z,100.00
2022-10-01T05:08:23.301Z,100.00
2022-10-01T05:10:50.406Z,100.00
2022-10-01T05:13:17.282Z,100.00
2022-10-01T05:15:45.082Z,100.00
2022-10-01T05:18:13.255Z,100.00
2022-10-01T05:20:40.141Z,100.00
2022-10-01T05:23:06.969Z,100.00
2022-10-01T05:25:33.747Z,100.00
2022-10-01T05:28:05.386Z,100.00
2022-10-01T05:30:33.276Z,100.00
2022-10-01T05:33:02.338Z,100.00
2022-10-01T05:35:31.169Z,100.00
2022-10-01T05:37:59.363Z,100.00
2022-10-01T05:40:28.820Z,100.00
2022-10-01T05:42:56.603Z,100.00
2022-10-01T05:45:24.110Z,100.00
2022-10-01T05:47:56.934Z,100.00
2022-10-01T05:50:25.070Z,100.00
2022-10-01T05:52:55.566Z,100.00
2022-10-01T05:55:23.337Z,100.00
2022-10-01T05:57:57.623Z,100.00
2022-10-01T06:00:26.618Z,100.00
2022-10-01T06:02:53.854Z,100.00
2022-10-01T06:05:21.473Z,100.00
2022-10-01T06:07:49.135Z,100.00
2022-10-01T06:10:18.388Z,100.00
2022-10-01T06:12:45.987Z,100.00
2022-10-01T06:15:13.730Z,100.00
2022-10-01T06:17:45.031Z,100.00
2022-10-01T06:20:13.712Z,100.00
2022-10-01T06:22:41.264Z,100.00
2022-10-01T06:25:09.682Z,100.00
2022-10-01T06:27:38.547Z,100.00
2022-10-01T06:30:06.800Z,100.00
2022-10-01T06:32:35.052Z,100.00
2022-10-01T06:35:02.402Z,100.00
2022-10-01T06:37:29.497Z,100.00
2022-10-01T06:39:56.302Z,100.00
2022-10-01T06:42:23.345Z,100.00
2022-10-01T06:44:51.498Z,100.00
2022-10-01T06:47:18.464Z,100.00
2022-10-01T06:49:47.619Z,100.00
2022-10-01T06:52:33.564Z,100.00
2022-10-01T06:55:01.549Z,100.00
2022-10-01T06:57:29.195Z,100.00
2022-10-01T06:59:57.992Z,100.00
2022-10-01T07:02:29.105Z,100.00
2022-10-01T07:04:59.024Z,100.00
2022-10-01T07:07:30.108Z,100.00
2022-10-01T07:09:57.940Z,100.00
2022-10-01T07:12:25.450Z,100.00
2022-10-01T07:14:52.766Z,100.00
2022-10-01T07:17:21.181Z,100.00
2022-10-01T07:19:48.041Z,100.00
2022-10-01T07:22:14.963Z,100.00
2022-10-01T07:24:41.832Z,100.00
2022-10-01T07:27:08.918Z,100.00
2022-10-01T07:29:35.777Z,100.00
2022-10-01T07:32:14.721Z,100.00
2022-10-01T07:34:43.723Z,100.00
2022-10-01T07:37:10.956Z,100.00
2022-10-01T07:39:37.839Z,100.00
2022-10-01T07:42:04.785Z,100.00
2022-10-01T07:44:31.908Z,100.00
2022-10-01T07:46:59.057Z,100.00
2022-10-01T07:49:31.369Z,100.00
2022-10-01T07:51:59.711Z,100.00
2022-10-01T07:54:26.612Z,100.00
2022-10-01T07:56:55.940Z,100.00
2022-10-01T07:59:23.158Z,100.00
2022-10-01T08:01:51.728Z,100.00
2022-10-01T08:04:37.575Z,100.00
2022-10-01T08:07:06.212Z,100.00
2022-10-01T08:09:33.094Z,100.00
2022-10-01T08:12:00.014Z,100.00
2022-10-01T08:14:27.061Z,100.00
2022-10-01T08:16:55.176Z,100.00
2022-10-01T08:19:21.968Z,100.00
2022-10-01T08:21:48.751Z,100.00
2022-10-01T08:24:17.895Z,100.00
2022-10-01T08:26:44.844Z,100.00
2022-10-01T08:29:16.868Z,100.00
2022-10-01T08:31:43.975Z,100.00
2022-10-01T08:34:11.101Z,100.00
2022-10-01T08:36:38.100Z,100.00
2022-10-01T08:39:04.958Z,100.00
2022-10-01T08:41:44.778Z,100.00
2022-10-01T08:44:19.593Z,100.00
2022-10-01T08:46:47.990Z,100.00
2022-10-01T08:49:20.809Z,100.00
2022-10-01T08:51:52.348Z,100.00
2022-10-01T08:54:29.992Z,100.00
2022-10-01T08:57:01.878Z,100.00
2022-10-01T08:59:36.116Z,100.00
2022-10-01T09:02:10.813Z,100.00
2022-10-01T09:04:37.682Z,100.00
2022-10-01T09:07:19.403Z,100.00
2022-10-01T09:09:56.263Z,100.00
2022-10-01T09:12:38.443Z,100.00
2022-10-01T09:15:22.195Z,100.00
2022-10-01T09:18:01.920Z,100.00
2022-10-01T09:20:35.317Z,100.00
2022-10-01T09:23:18.521Z,100.00
2022-10-01T09:25:50.229Z,100.00
2022-10-01T09:28:21.172Z,100.00
2022-10-01T09:30:57.504Z,100.00
2022-10-01T09:33:29.949Z,100.00
2022-10-01T09:36:06.091Z,100.00
2022-10-01T09:38:38.595Z,100.00
2022-10-01T09:41:07.430Z,98.52
2022-10-01T09:43:39.398Z,96.74
2022-10-01T09:46:13.549Z,95.97
2022-10-01T09:48:49.185Z,92.16
2022-10-01T09:51:20.308Z,91.49
2022-10-01T09:54:00.209Z,97.10
2022-10-01T09:56:30.155Z,98.25
2022-10-01T09:59:02.362Z,100.00
2022-10-01T10:01:41.115Z,100.00
2022-10-01T10:04:09.806Z,100.00
2022-10-01T10:06:37.741Z,100.00
2022-10-01T10:09:05.342Z,100.00
2022-10-01T10:11:33.366Z,100.00
2022-10-01T10:14:04.561Z,100.00
2022-10-01T10:16:35.554Z,100.00
2022-10-01T10:19:05.659Z,93.51
2022-10-01T10:21:35.262Z,88.40
2022-10-01T10:24:04.828Z,85.13
2022-10-01T10:26:34.963Z,79.58
2022-10-01T10:29:05.061Z,82.37
2022-10-01T10:31:39.949Z,84.52
2022-10-01T10:34:14.377Z,86.42
2022-10-01T10:36:42.613Z,85.20
2022-10-01T10:39:21.518Z,79.84
2022-10-01T10:41:50.252Z,82.19
2022-10-01T10:44:21.622Z,85.19
2022-10-01T10:46:50.563Z,86.59
2022-10-01T10:49:21.875Z,86.72
2022-10-01T10:51:51.562Z,88.32
2022-10-01T10:54:20.778Z,89.90
2022-10-01T10:57:00.752Z,87.52
2022-10-01T10:59:31.810Z,83.47
2022-10-01T11:02:00.400Z,86.64
2022-10-01T11:04:36.939Z,87.92
2022-10-01T11:07:04.249Z,88.43
2022-10-01T11:09:43.689Z,89.38
2022-10-01T11:12:23.446Z,88.96
2022-10-01T11:15:09.474Z,87.85
2022-10-01T11:17:51.244Z,86.73
2022-10-01T11:20:34.561Z,86.62
2022-10-01T11:23:21.720Z,86.76
2022-10-01T11:25:58.854Z,91.75
2022-10-01T11:28:39.661Z,92.32
2022-10-01T11:31:19.006Z,92.47
2022-10-01T11:34:02.577Z,92.84
2022-10-01T11:36:38.280Z,92.91
2022-10-01T11:39:10.264Z,93.65
2022-10-01T11:41:41.666Z,92.99
2022-10-01T11:44:16.914Z,93.36
2022-10-01T11:46:58.912Z,92.52
2022-10-01T11:49:47.913Z,92.06
2022-10-01T11:52:35.303Z,91.82
2022-10-01T11:55:32.925Z,92.64
2022-10-01T11:58:26.543Z,92.46
2022-10-01T12:01:00.816Z,93.28
2022-10-01T12:03:35.356Z,94.43
2022-10-01T12:06:06.125Z,94.78
2022-10-01T12:08:37.662Z,93.13
2022-10-01T12:11:11.846Z,93.44
2022-10-01T12:13:43.106Z,93.08
2022-10-01T12:16:18.836Z,93.57
2022-10-01T12:18:54.910Z,94.09
2022-10-01T12:21:25.616Z,92.91
2022-10-01T12:23:57.573Z,93.96
2022-10-01T12:26:35.406Z,94.32
2022-10-01T12:29:13.248Z,92.54
2022-10-01T12:31:44.826Z,92.35
2022-10-01T12:34:22.556Z,91.59
2022-10-01T12:37:05.907Z,93.56
2022-10-01T12:39:43.624Z,93.97
2022-10-01T12:42:30.261Z,92.54
2022-10-01T12:45:06.823Z,93.11
2022-10-01T12:47:43.847Z,92.16
2022-10-01T12:50:22.471Z,90.60
2022-10-01T12:53:06.677Z,89.02
2022-10-01T12:55:49.654Z,87.04
2022-10-01T12:58:35.439Z,86.59
2022-10-01T13:01:08.284Z,87.92
2022-10-01T13:04:03.023Z,89.68
2022-10-01T13:06:40.680Z,88.35
2022-10-01T13:09:18.605Z,84.94
2022-10-01T13:12:12.153Z,86.71
2022-10-01T13:14:44.456Z,88.44
2022-10-01T13:17:23.670Z,88.71
2022-10-01T13:19:55.522Z,87.56
2022-10-01T13:22:32.687Z,87.42
2022-10-01T13:25:09.402Z,89.21
2022-10-01T13:27:40.712Z,87.57
2022-10-01T13:30:18.849Z,86.63
2022-10-01T13:32:51.905Z,88.17
2022-10-01T13:35:25.931Z,88.30
2022-10-01T13:37:54.459Z,91.00
2022-10-01T13:40:24.613Z,92.33
2022-10-01T13:42:53.910Z,92.19
2022-10-01T13:45:25.907Z,91.40
2022-10-01T13:48:03.473Z,91.28
2022-10-01T13:50:30.811Z,90.74
2022-10-01T13:53:07.782Z,90.61
2022-10-01T13:55:34.880Z,90.71
2022-10-01T13:58:03.060Z,88.92
2022-10-01T14:00:30.086Z,89.01
2022-10-01T14:03:04.313Z,89.46
2022-10-01T14:05:43.141Z,88.58
2022-10-01T14:08:17.629Z,89.01
2022-10-01T14:11:10.137Z,90.95
2022-10-01T14:14:04.633Z,89.12
2022-10-01T14:16:37.608Z,88.80
2022-10-01T14:19:04.694Z,88.25
2022-10-01T14:21:44.638Z,89.56
2022-10-01T14:24:23.582Z,87.16
2022-10-01T14:26:55.294Z,88.54
2022-10-01T14:29:34.691Z,88.44
2022-10-01T14:32:13.266Z,87.06
2022-10-01T14:34:51.154Z,86.12
2022-10-01T14:37:20.230Z,88.48
2022-10-01T14:40:01.057Z,87.05
2022-10-01T14:42:28.009Z,86.51
2022-10-01T14:44:54.876Z,85.94
2022-10-01T14:47:24.278Z,86.85
2022-10-01T14:49:52.116Z,86.39
2022-10-01T14:52:22.538Z,86.84
2022-10-01T14:54:57.085Z,87.33
2022-10-01T14:57:30.111Z,87.72
2022-10-01T15:00:00.657Z,87.64
2022-10-01T15:02:29.107Z,87.83
2022-10-01T15:04:57.462Z,87.65
2022-10-01T15:07:27.973Z,87.64
2022-10-01T15:10:05.945Z,87.00
2022-10-01T15:12:38.695Z,87.80
2022-10-01T15:15:17.177Z,86.95
2022-10-01T15:17:43.971Z,86.70
2022-10-01T15:20:12.433Z,87.75
2022-10-01T15:22:39.865Z,86.93
2022-10-01T15:25:19.258Z,87.54
2022-10-01T15:27:46.714Z,87.70
2022-10-01T15:30:16.021Z,88.33
2022-10-01T15:32:43.177Z,88.62
2022-10-01T15:35:13.557Z,87.52
2022-10-01T15:37:44.783Z,88.33
2022-10-01T15:40:27.066Z,87.48
2022-10-01T15:43:23.790Z,87.52
2022-10-01T15:46:11.232Z,87.74
2022-10-01T15:48:38.382Z,88.88
2022-10-01T15:51:13.889Z,88.17
2022-10-01T15:53:41.136Z,90.49
2022-10-01T15:56:12.333Z,89.17
2022-10-01T15:58:46.572Z,88.35
2022-10-01T16:01:20.121Z,89.18
2022-10-01T16:03:53.657Z,88.81
2022-10-01T16:06:24.122Z,86.87
2022-10-01T16:09:05.943Z,87.79
2022-10-01T16:11:52.389Z,87.71
2022-10-01T16:14:29.692Z,87.48
2022-10-01T16:17:32.104Z,88.16
2022-10-01T16:20:01.421Z,90.42
2022-10-01T16:22:31.842Z,92.35
2022-10-01T16:25:01.141Z,91.65
2022-10-01T16:27:35.246Z,92.74
2022-10-01T16:30:09.714Z,93.21
2022-10-01T16:32:36.528Z,92.95
2022-10-01T16:35:19.475Z,93.37
2022-10-01T16:37:49.222Z,94.73
2022-10-01T16:40:16.702Z,96.00
2022-10-01T16:42:46.102Z,94.16
2022-10-01T16:45:15.933Z,95.34
2022-10-01T16:47:42.877Z,95.21
2022-10-01T16:50:11.482Z,96.64
2022-10-01T16:52:38.272Z,96.10
2022-10-01T16:55:17.260Z,96.96
2022-10-01T16:57:45.482Z,97.12
2022-10-01T17:00:14.643Z,96.25
2022-10-01T17:02:42.041Z,97.63
2022-10-01T17:05:16.241Z,97.35
2022-10-01T17:07:45.353Z,98.16
2022-10-01T17:10:13.639Z,98.37
2022-10-01T17:12:40.623Z,99.46
2022-10-01T17:15:13.325Z,99.73
2022-10-01T17:17:40.122Z,100.00
2022-10-01T17:20:07.511Z,100.00
2022-10-01T17:22:34.624Z,98.74
2022-10-01T17:25:01.481Z,98.66
2022-10-01T17:27:28.371Z,99.10
2022-10-01T17:29:57.259Z,98.84
2022-10-01T17:32:25.453Z,99.20
2022-10-01T17:34:53.830Z,99.44
2022-10-01T17:37:23.125Z,99.85
2022-10-01T17:39:49.988Z,99.60
2022-10-01T17:42:18.111Z,100.00
2022-10-01T17:44:45.202Z,100.00
2022-10-01T17:47:12.009Z,100.00
2022-10-01T17:49:43.287Z,100.00
2022-10-01T17:52:10.145Z,100.00
2022-10-01T17:54:37.460Z,100.00
2022-10-01T17:57:04.741Z,100.00
2022-10-01T17:59:31.812Z,100.00
2022-10-01T18:01:58.976Z,100.00
2022-10-01T18:04:26.050Z,100.00
2022-10-01T18:06:59.560Z,100.00
2022-10-01T18:09:26.829Z,100.00
2022-10-01T18:11:53.614Z,100.00
2022-10-01T18:14:20.657Z,100.00
2022-10-01T18:16:47.736Z,100.00
2022-10-01T18:22:11.820Z,100.00
2022-10-01T18:24:40.700Z,100.00
2022-10-01T18:27:07.478Z,100.00
2022-10-01T18:29:35.222Z,100.00
2022-10-01T18:32:10.590Z,100.00
2022-10-01T18:34:39.885Z,100.00
2022-10-01T18:37:21.977Z,100.00
2022-10-01T18:39:56.052Z,100.00
2022-10-01T18:42:30.147Z,100.00
2022-10-01T18:44:59.482Z,100.00
2022-10-01T18:47:38.221Z,100.00
2022-10-01T18:50:28.490Z,100.00
2022-10-01T18:53:10.880Z,100.00
2022-10-01T18:55:55.258Z,100.00
2022-10-01T18:58:40.162Z,100.00
2022-10-01T19:01:16.979Z,100.00
2022-10-01T19:04:28.556Z,100.00
2022-10-01T19:07:08.495Z,100.00
2022-10-01T19:09:48.018Z,100.00
2022-10-01T19:12:30.676Z,100.00
2022-10-01T19:15:14.361Z,100.00
2022-10-01T19:17:50.583Z,100.00
2022-10-01T19:20:32.255Z,100.00
2022-10-01T19:23:13.983Z,99.83
2022-10-01T19:25:48.797Z,99.94
2022-10-01T19:28:30.683Z,99.68
2022-10-01T19:31:08.750Z,100.00
2022-10-01T19:33:43.234Z,100.00
2022-10-01T19:36:17.110Z,100.00
2022-10-01T19:38:47.705Z,100.00
2022-10-01T19:41:22.458Z,100.00
2022-10-01T19:43:55.489Z,99.76
2022-10-01T19:46:26.801Z,99.73
2022-10-01T19:49:00.715Z,99.64
2022-10-01T19:51:32.647Z,99.93
2022-10-01T19:54:01.559Z,99.44
2022-10-01T19:56:31.585Z,99.37
2022-10-01T19:59:01.277Z,99.99
2022-10-01T20:01:35.724Z,100.00
2022-10-01T20:04:05.437Z,100.00
2022-10-01T20:06:35.474Z,100.00
2022-10-01T20:09:09.064Z,100.00
2022-10-01T20:11:44.303Z,100.00
2022-10-01T20:14:45.269Z,100.00
2022-10-01T20:17:19.581Z,99.84
2022-10-01T20:19:53.966Z,100.00
2022-10-01T20:22:27.534Z,100.00
2022-10-01T20:25:02.989Z,100.00
2022-10-01T20:27:34.865Z,99.50
2022-10-01T20:30:05.722Z,100.00
2022-10-01T20:32:39.921Z,99.83
2022-10-01T20:35:17.137Z,100.00
2022-10-01T20:38:02.153Z,100.00
2022-10-01T20:40:34.354Z,100.00
2022-10-01T20:43:06.310Z,100.00
2022-10-01T20:45:35.539Z,100.00
2022-10-01T20:48:09.527Z,100.00
2022-10-01T20:50:43.854Z,100.00
2022-10-01T20:53:21.363Z,100.00
2022-10-01T20:55:52.818Z,100.00
2022-10-01T20:58:25.277Z,100.00
2022-10-01T21:00:58.457Z,100.00
2022-10-01T21:03:31.872Z,100.00
2022-10-01T21:06:04.958Z,100.00
2022-10-01T21:08:41.084Z,100.00
2022-10-01T21:11:13.362Z,100.00
2022-10-01T21:13:47.909Z,100.00
2022-10-01T21:16:29.174Z,100.00
2022-10-01T21:19:01.905Z,100.00
2022-10-01T21:21:41.043Z,100.00
2022-10-01T21:24:26.242Z,100.00
2022-10-01T21:27:02.566Z,100.00
2022-10-01T21:29:54.895Z,100.00
2022-10-01T21:32:36.710Z,100.00
2022-10-01T21:35:20.389Z,100.00
2022-10-01T21:37:59.777Z,100.00
2022-10-01T21:40:39.495Z,100.00
2022-10-01T21:43:20.001Z,100.00
2022-10-01T21:45:57.827Z,100.00
2022-10-01T21:48:39.116Z,100.00
2022-10-01T21:51:16.071Z,100.00
2022-10-01T21:54:04.553Z,100.00
2022-10-01T21:56:50.392Z,100.00
2022-10-01T21:59:32.181Z,100.00
2022-10-01T22:02:07.306Z,100.00
2022-10-01T22:04:40.473Z,100.00
2022-10-01T22:07:17.840Z,100.00
2022-10-01T22:10:01.690Z,100.00
2022-10-01T22:12:32.717Z,100.00
2022-10-01T22:15:00.879Z,100.00
2022-10-01T22:17:32.122Z,100.00
2022-10-01T22:20:03.270Z,100.00
2022-10-01T22:22:33.829Z,100.00
2022-10-01T22:25:02.756Z,100.00
2022-10-01T22:27:35.781Z,100.00
2022-10-01T22:30:09.505Z,100.00
2022-10-01T22:32:42.244Z,100.00
2022-10-01T22:35:16.457Z,100.00
2022-10-01T22:37:49.539Z,100.00
2022-10-01T22:40:22.773Z,100.00
2022-10-01T22:42:57.858Z,100.00
2022-10-01T22:45:35.990Z,100.00
2022-10-01T22:48:18.071Z,100.00
2022-10-01T22:51:01.814Z,100.00
2022-10-01T22:53:42.126Z,100.00
2022-10-01T22:56:14.117Z,100.00
2022-10-01T22:58:52.922Z,100.00
2022-10-01T23:01:31.690Z,100.00
2022-10-01T23:04:15.689Z,100.00
2022-10-01T23:06:52.840Z,100.00
2022-10-01T23:09:25.575Z,100.00
2022-10-01T23:11:57.364Z,100.00
2022-10-01T23:14:39.491Z,100.00
2022-10-01T23:17:13.884Z,100.00
2022-10-01T23:19:53.587Z,100.00
2022-10-01T23:22:38.647Z,100.00
2022-10-01T23:25:17.777Z,100.00
2022-10-01T23:27:58.886Z,100.00
2022-10-01T23:30:34.969Z,100.00
2022-10-01T23:33:35.278Z,100.00
2022-10-01T23:36:13.548Z,100.00
2022-10-01T23:38:57.344Z,99.79
2022-10-01T23:41:32.927Z,99.76
2022-10-01T23:44:05.454Z,100.00
2022-10-01T23:46:35.562Z,100.00
2022-10-01T23:49:07.157Z,100.00
2022-10-01T23:51:43.329Z,100.00
2022-10-01T23:54:17.397Z,99.36
2022-10-01T23:56:49.996Z,99.07
2022-10-01T23:59:23.926Z,98.51
